Terminal Aerodrome Forecast
Issued by NWS

Home | Current Version | Previous Version | Text Only | Print | Product List | Glossary On
Versions: 1 2 3 4 5 6 7 8 9 10 11 12 13 14 15
000
FTUS46 KSEW 202300
TAFBFI
TAF
KBFI 202324Z 2100/2124 13008KT P6SM -RA OVC029
     FM210200 19013G21KT P6SM -RA OVC020
     FM211700 18012G18KT P6SM VCSH OVC030
     FM212200 19012G19KT P6SM VCSH SCT030 OVC050=

USA.gov is the U.S. government's official web portal to all federal, state and local government web resources and services.